createdAt,value
2023-05-14T00:01:39.006Z,3.70
2023-05-14T00:04:07.338Z,4.30
2023-05-14T00:06:35.362Z,3.77
2023-05-14T00:09:04.264Z,5.37
2023-05-14T00:11:33.645Z,4.63
2023-05-14T00:14:01.517Z,3.87
2023-05-14T00:16:29.536Z,4.87
2023-05-14T00:18:57.593Z,3.70
2023-05-14T00:21:25.626Z,4.43
2023-05-14T00:23:53.540Z,4.13
2023-05-14T00:26:21.517Z,4.40
2023-05-14T00:28:51.113Z,6.37
2023-05-14T00:31:19.953Z,5.67
2023-05-14T00:33:47.881Z,6.20
2023-05-14T00:36:16.288Z,4.63
2023-05-14T00:38:44.254Z,4.37
2023-05-14T00:41:12.564Z,5.67
2023-05-14T00:43:40.530Z,4.50
2023-05-14T00:46:10.243Z,5.57
2023-05-14T00:48:38.193Z,6.10
2023-05-14T00:51:06.645Z,5.77
2023-05-14T00:53:35.130Z,3.90
2023-05-14T00:56:04.061Z,4.83
2023-05-14T00:58:32.193Z,7.33
2023-05-14T01:01:00.344Z,7.70
2023-05-14T01:03:31.403Z,6.07
2023-05-14T01:06:17.083Z,5.60
2023-05-14T01:09:06.997Z,4.73
2023-05-14T01:11:46.842Z,4.47
2023-05-14T01:14:22.718Z,4.97
2023-05-14T01:16:54.077Z,4.90
2023-05-14T01:19:36.411Z,4.93
2023-05-14T01:22:06.139Z,3.83
2023-05-14T01:24:34.101Z,3.53
2023-05-14T01:27:08.395Z,3.57
2023-05-14T01:29:41.441Z,3.63
2023-05-14T01:32:10.200Z,4.77
2023-05-14T01:34:39.021Z,4.53
2023-05-14T01:37:09.385Z,4.33
2023-05-14T01:39:38.835Z,4.07
2023-05-14T01:42:08.309Z,5.97
2023-05-14T01:44:37.099Z,4.90
2023-05-14T01:47:05.434Z,4.73
2023-05-14T01:49:34.045Z,6.13
2023-05-14T01:52:01.882Z,4.90
2023-05-14T01:54:31.593Z,4.10
2023-05-14T01:56:59.431Z,4.20
2023-05-14T01:59:29.854Z,4.90
2023-05-14T02:01:57.873Z,4.07
2023-05-14T02:04:26.449Z,4.13
2023-05-14T02:06:54.727Z,3.60
2023-05-14T02:09:25.711Z,5.00
2023-05-14T02:11:55.592Z,4.10
2023-05-14T02:14:23.494Z,5.53
2023-05-14T02:16:51.919Z,4.00
2023-05-14T02:19:19.790Z,4.83
2023-05-14T02:21:49.515Z,4.20
2023-05-14T02:24:17.413Z,4.50
2023-05-14T02:26:45.534Z,4.80
2023-05-14T02:29:14.803Z,4.17
2023-05-14T02:31:42.803Z,5.40
2023-05-14T02:34:11.329Z,3.50
2023-05-14T02:36:40.107Z,4.03
2023-05-14T02:39:08.056Z,5.87
2023-05-14T02:41:36.207Z,3.77
2023-05-14T02:44:04.151Z,4.10
2023-05-14T02:46:33.813Z,5.83
2023-05-14T02:49:03.334Z,5.57
2023-05-14T02:51:31.326Z,4.60
2023-05-14T02:53:59.695Z,4.07
2023-05-14T02:56:27.644Z,4.13
2023-05-14T02:58:55.595Z,6.43
2023-05-14T03:01:24.205Z,5.00
2023-05-14T03:03:54.079Z,4.33
2023-05-14T03:06:22.002Z,5.83
2023-05-14T03:08:50.363Z,6.13
2023-05-14T03:11:18.393Z,3.57
2023-05-14T03:13:46.658Z,4.23
2023-05-14T03:16:14.596Z,3.50
2023-05-14T03:18:42.775Z,3.80
2023-05-14T03:21:12.047Z,4.00
2023-05-14T03:23:40.144Z,4.13
2023-05-14T03:26:08.366Z,5.00
2023-05-14T03:28:36.519Z,4.03
2023-05-14T03:31:04.457Z,4.97
2023-05-14T03:33:32.659Z,4.67
2023-05-14T03:36:00.537Z,4.43
2023-05-14T03:38:29.942Z,6.17
2023-05-14T03:40:58.712Z,5.17
2023-05-14T03:43:27.388Z,3.63
2023-05-14T03:45:55.905Z,3.90
2023-05-14T03:48:24.264Z,3.10
2023-05-14T03:50:52.443Z,3.90
2023-05-14T03:53:20.608Z,4.30
2023-05-14T03:55:49.925Z,4.30
2023-05-14T03:58:18.137Z,4.17
2023-05-14T04:00:46.253Z,4.23
2023-05-14T04:03:14.255Z,3.07
2023-05-14T04:05:42.205Z,3.63
2023-05-14T04:08:10.568Z,3.80
2023-05-14T04:10:38.691Z,3.53
2023-05-14T04:13:08.004Z,3.57
2023-05-14T04:15:39.460Z,4.60
2023-05-14T04:18:07.600Z,4.70
2023-05-14T04:20:35.663Z,4.77
2023-05-14T04:23:03.934Z,5.40
2023-05-14T04:25:31.806Z,4.27
2023-05-14T04:27:59.662Z,5.07
2023-05-14T04:30:28.983Z,6.90
2023-05-14T04:32:56.996Z,3.87
2023-05-14T04:35:25.387Z,3.63
2023-05-14T04:37:53.516Z,5.17
2023-05-14T04:40:22.791Z,3.80
2023-05-14T04:42:50.820Z,5.13
2023-05-14T04:45:19.301Z,3.47
2023-05-14T04:47:48.831Z,3.50
2023-05-14T04:50:17.213Z,3.83
2023-05-14T04:52:45.454Z,3.77
2023-05-14T04:55:13.453Z,3.83
2023-05-14T04:57:41.337Z,5.00
2023-05-14T05:00:11.440Z,4.07
2023-05-14T05:02:39.351Z,6.47
2023-05-14T05:05:09.574Z,4.73
2023-05-14T05:07:37.418Z,4.97
2023-05-14T05:10:06.108Z,5.27
2023-05-14T05:12:35.246Z,5.80
2023-05-14T05:15:03.587Z,5.70
2023-05-14T05:17:31.500Z,5.90
2023-05-14T05:19:59.927Z,9.63
2023-05-14T05:22:29.147Z,5.43
2023-05-14T05:25:00.044Z,5.30
2023-05-14T05:27:28.283Z,5.40
2023-05-14T05:29:57.193Z,5.33
2023-05-14T05:32:25.130Z,4.97
2023-05-14T05:34:54.175Z,5.20
2023-05-14T05:37:22.230Z,6.53
2023-05-14T05:39:51.675Z,5.83
2023-05-14T05:42:19.502Z,4.90
2023-05-14T05:44:47.677Z,7.03
2023-05-14T05:47:15.638Z,4.50
2023-05-14T05:49:43.527Z,4.97
2023-05-14T05:52:11.630Z,6.63
2023-05-14T05:54:40.020Z,5.47
2023-05-14T05:57:09.479Z,6.10
2023-05-14T05:59:37.342Z,5.23
2023-05-14T06:02:05.949Z,5.03
2023-05-14T06:04:34.062Z,5.90
2023-05-14T06:07:02.086Z,6.73
2023-05-14T06:09:29.962Z,4.83
2023-05-14T06:11:58.073Z,6.93
2023-05-14T06:14:27.253Z,4.43
2023-05-14T06:16:55.733Z,4.97
2023-05-14T06:19:24.403Z,7.00
2023-05-14T06:21:52.470Z,5.10
2023-05-14T06:24:21.224Z,4.70
2023-05-14T06:26:49.753Z,4.80
2023-05-14T06:29:17.733Z,5.07
2023-05-14T06:31:47.090Z,5.30
2023-05-14T06:34:15.140Z,5.83
2023-05-14T06:36:43.225Z,5.63
2023-05-14T06:39:12.414Z,5.93
2023-05-14T06:41:43.556Z,4.80
2023-05-14T06:44:15.847Z,7.60
2023-05-14T06:46:44.009Z,7.10
2023-05-14T06:49:13.408Z,6.90
2023-05-14T06:51:41.962Z,5.87
2023-05-14T06:54:09.979Z,6.33
2023-05-14T06:56:37.877Z,6.60
2023-05-14T06:59:05.909Z,6.23
2023-05-14T07:01:33.807Z,5.33
2023-05-14T07:04:01.858Z,5.50
2023-05-14T07:06:31.171Z,7.43
2023-05-14T07:09:00.150Z,6.00
2023-05-14T07:11:28.024Z,4.83
2023-05-14T07:13:56.037Z,6.00
2023-05-14T07:16:24.104Z,5.63
2023-05-14T07:18:52.011Z,6.80
2023-05-14T07:21:20.182Z,6.10
2023-05-14T07:23:49.444Z,5.40
2023-05-14T07:26:17.353Z,6.47
2023-05-14T07:28:45.294Z,5.47
2023-05-14T07:31:13.441Z,5.17
2023-05-14T07:33:41.255Z,6.80
2023-05-14T07:36:09.630Z,5.30
2023-05-14T07:38:37.651Z,3.83
2023-05-14T07:41:08.826Z,4.90
2023-05-14T07:43:38.376Z,3.67
2023-05-14T07:46:07.623Z,3.47
2023-05-14T07:48:35.556Z,3.03
2023-05-14T07:51:03.705Z,4.00
2023-05-14T07:53:31.562Z,4.00
2023-05-14T07:56:00.202Z,3.10
2023-05-14T07:58:30.259Z,4.20
2023-05-14T08:00:58.231Z,3.33
2023-05-14T08:03:26.423Z,2.73
2023-05-14T08:05:54.596Z,3.10
2023-05-14T08:08:22.542Z,3.40
2023-05-14T08:10:50.705Z,3.23
2023-05-14T08:13:18.549Z,3.13
2023-05-14T08:15:48.098Z,3.30
2023-05-14T08:18:16.077Z,2.63
2023-05-14T08:20:43.977Z,2.40
2023-05-14T08:23:12.222Z,2.90
2023-05-14T08:25:40.159Z,2.10
2023-05-14T08:28:08.578Z,3.07
2023-05-14T08:30:36.521Z,3.90
2023-05-14T08:33:06.153Z,2.50
2023-05-14T08:35:34.216Z,2.33
2023-05-14T08:38:02.656Z,2.70
2023-05-14T08:40:30.962Z,4.73
2023-05-14T08:43:00.900Z,2.67
2023-05-14T08:45:31.524Z,2.93
2023-05-14T08:48:01.095Z,4.03
2023-05-14T08:50:31.158Z,2.93
2023-05-14T08:52:59.172Z,3.27
2023-05-14T08:55:29.083Z,4.57
2023-05-14T08:57:57.250Z,3.67
2023-05-14T09:00:26.542Z,2.83
2023-05-14T09:02:55.405Z,2.77
2023-05-14T09:05:24.459Z,2.67
2023-05-14T09:07:53.818Z,2.90
2023-05-14T09:10:22.492Z,3.13
2023-05-14T09:12:51.541Z,4.03
2023-05-14T09:15:19.585Z,3.65
2023-05-14T09:17:48.927Z,2.80
2023-05-14T09:20:17.588Z,2.70
2023-05-14T09:22:45.456Z,2.33
2023-05-14T09:25:14.855Z,2.58
2023-05-14T09:27:42.890Z,2.42
2023-05-14T09:30:12.309Z,2.17
2023-05-14T09:32:43.691Z,2.00
2023-05-14T09:35:19.255Z,1.95
2023-05-14T09:37:48.914Z,2.53
2023-05-14T09:40:20.519Z,1.90
2023-05-14T09:42:49.198Z,2.13
2023-05-14T09:45:18.098Z,1.75
2023-05-14T09:47:46.175Z,2.30
2023-05-14T09:50:14.334Z,2.30
2023-05-14T09:52:42.312Z,3.03
2023-05-14T09:55:10.656Z,1.40
2023-05-14T09:57:40.609Z,1.83
2023-05-14T10:00:10.304Z,2.00
2023-05-14T10:02:41.106Z,1.42
2023-05-14T10:05:11.437Z,1.83
2023-05-14T10:07:43.303Z,1.60
2023-05-14T10:10:16.317Z,1.58
2023-05-14T10:12:52.350Z,1.92
2023-05-14T10:15:25.084Z,3.38
2023-05-14T10:18:02.888Z,1.63
2023-05-14T10:20:32.413Z,1.52
2023-05-14T10:23:00.596Z,1.80
2023-05-14T10:25:29.937Z,1.50
2023-05-14T10:27:59.493Z,1.30
2023-05-14T10:30:27.859Z,7.53
2023-05-14T10:33:12.486Z,2.45
2023-05-14T10:35:55.917Z,2.28
2023-05-14T10:38:27.108Z,1.10
2023-05-14T10:41:03.340Z,1.38
2023-05-14T10:43:37.586Z,1.75
2023-05-14T10:46:06.322Z,1.70
2023-05-14T10:48:35.848Z,1.48
2023-05-14T10:51:03.872Z,1.45
2023-05-14T10:53:34.542Z,1.38
2023-05-14T10:56:07.907Z,1.50
2023-05-14T10:58:41.385Z,1.38
2023-05-14T11:01:11.952Z,1.15
2023-05-14T11:03:44.752Z,1.27
2023-05-14T11:06:14.898Z,1.48
2023-05-14T11:08:43.770Z,1.02
2023-05-14T11:11:13.103Z,1.52
2023-05-14T11:13:43.629Z,1.35
2023-05-14T11:16:22.495Z,2.15
2023-05-14T11:19:01.463Z,0.95
2023-05-14T11:21:29.774Z,1.35
2023-05-14T11:23:58.304Z,0.90
2023-05-14T11:26:26.460Z,2.10
2023-05-14T11:28:55.847Z,1.20
2023-05-14T11:31:24.198Z,2.28
2023-05-14T11:33:54.210Z,1.92
2023-05-14T11:36:22.604Z,1.27
2023-05-14T11:38:52.031Z,1.52
2023-05-14T11:41:21.682Z,1.58
2023-05-14T11:43:49.846Z,1.20
2023-05-14T11:46:19.726Z,1.50
2023-05-14T11:48:48.164Z,1.10
2023-05-14T11:51:16.104Z,1.10
2023-05-14T11:53:44.099Z,2.28
2023-05-14T11:56:12.075Z,3.05
2023-05-14T11:58:40.112Z,1.42
2023-05-14T12:01:08.446Z,2.72
2023-05-14T12:03:37.857Z,1.92
2023-05-14T12:06:08.762Z,1.20
2023-05-14T12:08:37.870Z,1.30
2023-05-14T12:11:05.849Z,1.23
2023-05-14T12:13:34.572Z,1.25
2023-05-14T12:16:03.279Z,1.75
2023-05-14T12:18:33.334Z,1.80
2023-05-14T12:21:07.932Z,2.33
2023-05-14T12:23:36.151Z,1.80
2023-05-14T12:26:05.988Z,1.52
2023-05-14T12:28:37.689Z,0.90
2023-05-14T12:31:06.628Z,1.70
2023-05-14T12:33:34.720Z,1.65
2023-05-14T12:36:20.311Z,1.55
2023-05-14T12:38:49.858Z,1.60
2023-05-14T12:41:18.227Z,1.70
2023-05-14T12:43:49.738Z,1.60
2023-05-14T12:46:17.727Z,2.40
2023-05-14T12:48:46.415Z,1.00
2023-05-14T12:51:15.710Z,0.98
2023-05-14T12:53:44.093Z,1.27
2023-05-14T12:56:12.355Z,0.90
2023-05-14T12:58:40.848Z,0.60
2023-05-14T13:01:08.901Z,1.30
2023-05-14T13:03:37.071Z,1.23
2023-05-14T13:06:05.306Z,2.08
2023-05-14T13:08:34.742Z,0.65
2023-05-14T13:11:02.601Z,1.10
2023-05-14T13:13:30.615Z,0.70
2023-05-14T13:15:58.767Z,0.90
2023-05-14T13:18:27.235Z,1.42
2023-05-14T13:20:55.372Z,1.90
2023-05-14T13:23:23.796Z,1.50
2023-05-14T13:25:53.038Z,1.60
2023-05-14T13:28:21.317Z,1.60
2023-05-14T13:31:06.314Z,0.98
2023-05-14T13:33:38.926Z,1.48
2023-05-14T13:36:08.134Z,1.65
2023-05-14T13:38:36.457Z,2.97
2023-05-14T13:41:06.082Z,1.33
2023-05-14T13:43:35.283Z,1.42
2023-05-14T13:46:04.838Z,0.90
2023-05-14T13:48:33.239Z,1.73
2023-05-14T13:51:02.193Z,1.02
2023-05-14T13:53:30.632Z,1.55
2023-05-14T13:56:00.838Z,1.30
2023-05-14T13:58:30.487Z,1.67
2023-05-14T14:00:58.595Z,1.02
2023-05-14T14:03:26.553Z,2.10
2023-05-14T14:05:54.774Z,0.80
2023-05-14T14:08:24.366Z,1.10
2023-05-14T14:10:55.411Z,1.75
2023-05-14T14:13:24.318Z,1.30
2023-05-14T14:15:53.772Z,1.88
2023-05-14T14:18:21.948Z,1.10
2023-05-14T14:20:50.016Z,1.40
2023-05-14T14:23:17.883Z,0.90
2023-05-14T14:25:45.935Z,1.00
2023-05-14T14:28:14.055Z,0.90
2023-05-14T14:30:42.120Z,1.08
2023-05-14T14:33:11.515Z,0.85
2023-05-14T14:35:39.686Z,0.88
2023-05-14T14:38:07.532Z,1.05
2023-05-14T14:40:35.935Z,1.15
2023-05-14T14:43:03.918Z,1.52
2023-05-14T14:45:31.939Z,1.63
2023-05-14T14:48:27.282Z,0.95
2023-05-14T14:50:56.286Z,1.20
2023-05-14T14:53:25.243Z,0.80
2023-05-14T14:55:53.399Z,1.30
2023-05-14T14:58:21.906Z,1.30
2023-05-14T15:00:51.276Z,0.90
2023-05-14T15:03:22.596Z,0.98
2023-05-14T15:05:53.678Z,1.05
2023-05-14T15:08:25.477Z,1.63
2023-05-14T15:10:53.719Z,1.70
2023-05-14T15:13:21.761Z,2.33
2023-05-14T15:15:51.896Z,1.38
2023-05-14T15:18:19.929Z,1.00
2023-05-14T15:20:48.204Z,1.30
2023-05-14T15:23:17.436Z,1.67
2023-05-14T15:25:46.062Z,1.00
2023-05-14T15:28:13.955Z,1.02
2023-05-14T15:30:42.447Z,1.15
2023-05-14T15:33:10.352Z,0.98
2023-05-14T15:35:38.463Z,1.02
2023-05-14T15:38:07.620Z,1.63
2023-05-14T15:40:37.069Z,1.45
2023-05-14T15:43:04.989Z,1.23
2023-05-14T15:45:33.177Z,1.23
2023-05-14T15:48:01.137Z,0.90
2023-05-14T15:50:29.322Z,1.90
2023-05-14T15:52:57.460Z,1.30
2023-05-14T15:55:25.727Z,1.83
2023-05-14T15:57:54.900Z,1.20
2023-05-14T16:00:23.823Z,1.27
2023-05-14T16:02:52.731Z,0.95
2023-05-14T16:05:20.972Z,1.23
2023-05-14T16:07:51.159Z,1.10
2023-05-14T16:10:20.966Z,1.02
2023-05-14T16:12:48.820Z,1.13
2023-05-14T16:15:18.456Z,1.23
2023-05-14T16:17:46.385Z,1.60
2023-05-14T16:20:14.341Z,2.57
2023-05-14T16:22:42.490Z,4.20
2023-05-14T16:25:10.665Z,1.13
2023-05-14T16:27:38.743Z,1.43
2023-05-14T16:30:08.064Z,1.53
2023-05-14T16:32:37.593Z,1.47
2023-05-14T16:35:05.990Z,1.23
2023-05-14T16:37:34.324Z,1.93
2023-05-14T16:40:02.297Z,2.97
2023-05-14T16:42:31.025Z,1.63
2023-05-14T16:44:58.904Z,1.47
2023-05-14T16:47:26.849Z,2.00
2023-05-14T16:49:56.263Z,2.30
2023-05-14T16:52:24.171Z,1.17
2023-05-14T16:54:52.228Z,1.70
2023-05-14T16:57:20.123Z,2.43
2023-05-14T16:59:48.318Z,2.20
2023-05-14T17:02:16.281Z,1.90
2023-05-14T17:04:44.414Z,1.67
2023-05-14T17:07:13.929Z,1.87
2023-05-14T17:09:41.815Z,2.43
2023-05-14T17:12:13.885Z,1.37
2023-05-14T17:14:41.937Z,2.03
2023-05-14T17:17:09.920Z,1.10
2023-05-14T17:19:37.785Z,0.77
2023-05-14T17:22:07.116Z,1.20
2023-05-14T17:24:39.026Z,1.00
2023-05-14T17:27:09.975Z,1.30
2023-05-14T17:29:38.066Z,1.27
2023-05-14T17:32:06.494Z,0.93
2023-05-14T17:34:34.716Z,1.20
2023-05-14T17:37:03.820Z,1.10
2023-05-14T17:39:31.989Z,2.00
2023-05-14T17:42:01.241Z,1.37
2023-05-14T17:44:29.345Z,1.20
2023-05-14T17:46:57.264Z,1.43
2023-05-14T17:49:25.310Z,2.03
2023-05-14T17:51:53.374Z,2.07
2023-05-14T17:54:21.471Z,1.80
2023-05-14T17:56:50.996Z,2.37
2023-05-14T17:59:21.570Z,3.27
2023-05-14T18:01:51.102Z,3.93
2023-05-14T18:04:19.059Z,2.00
2023-05-14T18:06:47.239Z,3.60
2023-05-14T18:09:15.490Z,1.63
2023-05-14T18:11:43.314Z,2.47
2023-05-14T18:14:11.551Z,2.03
2023-05-14T18:16:41.045Z,2.53
2023-05-14T18:19:09.155Z,2.03
2023-05-14T18:21:37.242Z,3.27
2023-05-14T18:24:05.635Z,2.30
2023-05-14T18:26:34.857Z,3.13
2023-05-14T18:29:02.923Z,2.00
2023-05-14T18:31:30.990Z,2.70
2023-05-14T18:34:00.489Z,2.07
2023-05-14T18:36:29.917Z,3.10
2023-05-14T18:38:58.043Z,3.00
2023-05-14T18:41:26.363Z,1.87
2023-05-14T18:43:54.261Z,2.23
2023-05-14T18:46:22.583Z,1.87
2023-05-14T18:48:51.403Z,2.27
2023-05-14T18:51:20.695Z,3.77
2023-05-14T18:53:49.124Z,2.87
2023-05-14T18:56:16.992Z,3.77
2023-05-14T18:58:45.122Z,2.27
2023-05-14T19:01:13.147Z,4.60
2023-05-14T19:03:42.052Z,2.10
2023-05-14T19:06:10.265Z,2.37
2023-05-14T19:08:39.478Z,3.77
2023-05-14T19:11:07.389Z,2.13
2023-05-14T19:13:35.319Z,3.53
2023-05-14T19:16:05.672Z,3.40
2023-05-14T19:18:33.712Z,6.70
2023-05-14T19:21:01.876Z,5.43
2023-05-14T19:23:30.996Z,6.23
2023-05-14T19:26:01.042Z,4.33
2023-05-14T19:28:29.313Z,4.73
2023-05-14T19:30:57.408Z,3.43
2023-05-14T19:33:26.501Z,3.57
2023-05-14T19:35:54.571Z,2.70
2023-05-14T19:38:23.054Z,2.80
2023-05-14T19:40:53.278Z,3.00
2023-05-14T19:43:22.952Z,3.07
2023-05-14T19:45:50.927Z,3.03
2023-05-14T19:48:19.885Z,2.63
2023-05-14T19:50:48.057Z,2.50
2023-05-14T19:53:16.105Z,2.80
2023-05-14T19:55:44.298Z,2.40
2023-05-14T19:58:12.454Z,3.17
2023-05-14T20:00:42.019Z,2.23
2023-05-14T20:03:10.306Z,2.10
2023-05-14T20:05:38.437Z,2.27
2023-05-14T20:08:08.194Z,2.00
2023-05-14T20:10:36.074Z,3.27
2023-05-14T20:13:04.310Z,2.43
2023-05-14T20:15:32.192Z,1.80
2023-05-14T20:18:01.928Z,4.10
2023-05-14T20:20:32.758Z,2.87
2023-05-14T20:23:01.445Z,9.53
2023-05-14T20:25:29.527Z,9.37
2023-05-14T20:27:57.773Z,7.93
2023-05-14T20:30:26.478Z,13.27
2023-05-14T20:32:54.937Z,9.17
2023-05-14T20:35:24.554Z,4.77
2023-05-14T20:37:52.858Z,4.90
2023-05-14T20:40:21.532Z,3.33
2023-05-14T20:42:50.438Z,4.53
2023-05-14T20:45:18.756Z,3.23
2023-05-14T20:47:46.656Z,3.77
2023-05-14T20:50:14.797Z,3.50
2023-05-14T20:52:44.428Z,2.40
2023-05-14T20:55:13.620Z,2.97
2023-05-14T20:57:42.295Z,2.20
2023-05-14T21:00:13.254Z,3.33
2023-05-14T21:02:41.548Z,2.50
2023-05-14T21:05:09.971Z,4.03
2023-05-14T21:07:39.441Z,3.17
2023-05-14T21:10:10.057Z,2.77
2023-05-14T21:12:37.970Z,3.77
2023-05-14T21:15:06.780Z,3.30
2023-05-14T21:17:34.669Z,3.10
2023-05-14T21:20:02.971Z,4.07
2023-05-14T21:22:30.860Z,2.37
2023-05-14T21:24:58.867Z,3.30
2023-05-14T21:27:28.155Z,3.20
2023-05-14T21:29:56.115Z,3.83
2023-05-14T21:32:24.227Z,2.90
2023-05-14T21:34:52.208Z,2.80
2023-05-14T21:37:20.332Z,3.87
2023-05-14T21:39:48.601Z,4.17
2023-05-14T21:42:17.787Z,3.07
2023-05-14T21:44:47.005Z,2.67
2023-05-14T21:47:16.350Z,2.40
2023-05-14T21:49:44.438Z,3.03
2023-05-14T21:52:13.236Z,3.03
2023-05-14T21:54:41.346Z,2.00
2023-05-14T21:57:09.381Z,3.37
2023-05-14T21:59:37.991Z,2.60
2023-05-14T22:02:08.158Z,3.00
2023-05-14T22:04:36.141Z,7.37
2023-05-14T22:07:04.425Z,3.73
2023-05-14T22:09:32.495Z,3.13
2023-05-14T22:12:00.624Z,3.13
2023-05-14T22:14:29.132Z,2.23
2023-05-14T22:16:57.707Z,4.00
2023-05-14T22:19:28.287Z,2.97
2023-05-14T22:21:56.184Z,1.93
2023-05-14T22:24:24.279Z,4.17
2023-05-14T22:26:52.158Z,2.50
2023-05-14T22:29:20.286Z,2.47
2023-05-14T22:31:48.372Z,4.33
2023-05-14T22:34:16.427Z,3.77
2023-05-14T22:36:46.042Z,2.17
2023-05-14T22:39:14.102Z,2.43
2023-05-14T22:41:42.201Z,2.27
2023-05-14T22:44:10.023Z,2.93
2023-05-14T22:46:38.529Z,3.10
2023-05-14T22:49:06.453Z,3.53
2023-05-14T22:51:34.523Z,3.33
2023-05-14T22:54:03.764Z,3.33
2023-05-14T22:56:32.618Z,5.03
2023-05-14T22:59:00.961Z,3.07
2023-05-14T23:01:29.002Z,3.97
2023-05-14T23:03:57.732Z,2.30
2023-05-14T23:06:26.065Z,2.73
2023-05-14T23:08:54.180Z,4.67
2023-05-14T23:11:23.548Z,3.57
2023-05-14T23:13:51.476Z,6.93
2023-05-14T23:16:19.652Z,3.27
2023-05-14T23:18:47.751Z,3.87
2023-05-14T23:21:16.052Z,2.80
2023-05-14T23:23:44.071Z,3.77
2023-05-14T23:26:12.321Z,4.70
2023-05-14T23:28:41.572Z,3.17
2023-05-14T23:31:09.482Z,2.83
2023-05-14T23:33:39.820Z,3.13
2023-05-14T23:36:08.956Z,3.10
2023-05-14T23:38:37.247Z,2.70
2023-05-14T23:41:05.316Z,6.13
2023-05-14T23:43:33.766Z,4.20
2023-05-14T23:46:03.812Z,4.30
2023-05-14T23:48:32.358Z,4.23
2023-05-14T23:51:00.210Z,3.43
2023-05-14T23:53:28.389Z,5.60
2023-05-14T23:55:56.516Z,3.60
2023-05-14T23:58:24.634Z,4.40
